createdAt,value
2022-11-14T00:00:53.735Z,78.43
2022-11-14T00:03:20.277Z,75.59
2022-11-14T00:05:46.796Z,79.84
2022-11-14T00:08:17.431Z,80.65
2022-11-14T00:10:46.480Z,78.74
2022-11-14T00:13:13.169Z,78.46
2022-11-14T00:15:39.687Z,78.13
2022-11-14T00:18:06.369Z,78.24
2022-11-14T00:20:33.150Z,76.11
2022-11-14T00:22:59.714Z,83.89
2022-11-14T00:25:26.175Z,87.30
2022-11-14T00:27:52.712Z,81.55
2022-11-14T00:30:19.160Z,79.96
2022-11-14T00:32:45.668Z,79.18
2022-11-14T00:35:12.021Z,76.26
2022-11-14T00:37:38.520Z,80.17
2022-11-14T00:40:05.422Z,79.41
2022-11-14T00:42:31.825Z,77.46
2022-11-14T00:44:58.202Z,76.12
2022-11-14T00:47:24.634Z,80.71
2022-11-14T00:49:51.029Z,78.85
2022-11-14T00:52:17.489Z,79.80
2022-11-14T00:54:43.869Z,84.16
2022-11-14T00:57:10.287Z,77.99
2022-11-14T00:59:36.718Z,79.31
2022-11-14T01:02:03.133Z,79.29
2022-11-14T01:04:29.541Z,78.83
2022-11-14T01:06:55.918Z,78.41
2022-11-14T01:09:22.529Z,75.32
2022-11-14T01:11:48.932Z,81.25
2022-11-14T01:14:15.319Z,78.00
2022-11-14T01:16:41.702Z,78.32
2022-11-14T01:19:08.541Z,79.70
2022-11-14T01:21:35.400Z,78.51
2022-11-14T01:24:01.840Z,77.11
2022-11-14T01:26:28.242Z,78.65
2022-11-14T01:28:54.652Z,78.29
2022-11-14T01:31:24.927Z,78.33
2022-11-14T01:33:53.791Z,78.62
2022-11-14T01:36:20.854Z,74.38
2022-11-14T01:38:51.389Z,75.24
2022-11-14T01:41:17.804Z,81.22
2022-11-14T01:43:44.285Z,80.74
2022-11-14T01:46:23.486Z,80.94
2022-11-14T01:49:01.911Z,84.48
2022-11-14T01:51:32.656Z,85.06
2022-11-14T01:54:01.990Z,78.16
2022-11-14T01:56:34.060Z,81.19
2022-11-14T01:59:23.383Z,79.43
2022-11-14T02:01:52.165Z,75.34
2022-11-14T02:04:31.548Z,78.75
2022-11-14T02:07:01.602Z,76.85
2022-11-14T02:09:32.238Z,80.40
2022-11-14T02:12:01.123Z,79.35
2022-11-14T02:14:30.148Z,75.76
2022-11-14T02:17:22.636Z,82.64
2022-11-14T02:20:09.215Z,79.61
2022-11-14T02:22:36.081Z,79.19
2022-11-14T02:25:02.690Z,78.92
2022-11-14T02:27:31.258Z,78.20
2022-11-14T02:30:10.679Z,78.09
2022-11-14T02:35:23.508Z,78.70
2022-11-14T02:37:49.972Z,78.28
2022-11-14T02:40:16.646Z,78.59
2022-11-14T02:42:43.307Z,78.35
2022-11-14T02:45:11.246Z,78.28
2022-11-14T02:47:37.863Z,76.63
2022-11-14T02:50:04.628Z,78.44
2022-11-14T02:52:31.175Z,78.55
2022-11-14T02:54:57.550Z,78.30
2022-11-14T02:57:23.967Z,78.22
2022-11-14T02:59:50.380Z,77.87
2022-11-14T03:02:16.866Z,78.34
2022-11-14T03:04:43.302Z,78.00
2022-11-14T03:07:09.713Z,77.42
2022-11-14T03:09:36.131Z,77.87
2022-11-14T03:12:02.527Z,77.76
2022-11-14T03:14:31.124Z,77.76
2022-11-14T03:16:57.837Z,77.98
2022-11-14T03:19:24.252Z,78.18
2022-11-14T03:21:50.700Z,77.74
2022-11-14T03:24:17.206Z,78.02
2022-11-14T03:26:43.641Z,77.73
2022-11-14T03:29:10.077Z,78.18
2022-11-14T03:31:36.493Z,78.28
2022-11-14T03:34:03.169Z,78.27
2022-11-14T03:36:29.600Z,78.27
2022-11-14T03:38:56.046Z,78.11
2022-11-14T03:41:22.465Z,77.70
2022-11-14T03:43:48.857Z,78.07
2022-11-14T03:46:15.245Z,77.48
2022-11-14T03:48:41.625Z,77.91
2022-11-14T03:51:08.079Z,77.67
2022-11-14T03:53:34.463Z,77.74
2022-11-14T03:56:00.905Z,78.23
2022-11-14T03:58:27.617Z,72.53
2022-11-14T04:00:56.090Z,79.32
2022-11-14T04:03:23.837Z,78.50
2022-11-14T04:05:50.843Z,72.34
2022-11-14T04:08:17.710Z,77.96
2022-11-14T04:10:47.258Z,77.97
2022-11-14T04:13:13.658Z,77.46
2022-11-14T04:15:40.268Z,77.42
2022-11-14T04:18:06.798Z,77.60
2022-11-14T04:20:33.203Z,77.52
2022-11-14T04:22:59.617Z,77.69
2022-11-14T04:25:26.013Z,77.66
2022-11-14T04:27:52.708Z,77.40
2022-11-14T04:30:19.226Z,72.21
2022-11-14T04:32:47.874Z,78.62
2022-11-14T04:35:14.341Z,77.88
2022-11-14T04:37:40.798Z,77.67
2022-11-14T04:40:08.071Z,79.60
2022-11-14T04:42:34.464Z,77.92
2022-11-14T04:45:00.882Z,78.10
2022-11-14T04:47:27.308Z,78.21
2022-11-14T04:49:53.707Z,72.38
2022-11-14T04:52:20.113Z,77.02
2022-11-14T04:54:46.508Z,81.15
2022-11-14T04:57:12.911Z,78.80
2022-11-14T04:59:39.384Z,77.81
2022-11-14T05:02:05.804Z,80.21
2022-11-14T05:04:32.255Z,77.96
2022-11-14T05:06:58.726Z,85.85
2022-11-14T05:09:25.182Z,80.00
2022-11-14T05:11:51.638Z,78.62
2022-11-14T05:14:18.024Z,78.09
2022-11-14T05:16:44.451Z,77.99
2022-11-14T05:19:10.848Z,77.83
2022-11-14T05:21:37.237Z,78.24
2022-11-14T05:24:03.902Z,72.16
2022-11-14T05:26:30.435Z,80.83
2022-11-14T05:28:56.917Z,77.37
2022-11-14T05:31:23.339Z,78.30
2022-11-14T05:33:50.272Z,78.20
2022-11-14T05:36:17.229Z,77.98
2022-11-14T05:38:44.587Z,77.61
2022-11-14T05:41:16.974Z,76.63
2022-11-14T05:43:43.896Z,77.53
2022-11-14T05:46:12.707Z,77.87
2022-11-14T05:48:39.737Z,77.20
2022-11-14T05:51:07.926Z,71.95
2022-11-14T05:53:34.746Z,77.78
2022-11-14T05:56:06.624Z,77.85
2022-11-14T05:58:34.695Z,70.28
2022-11-14T06:01:06.611Z,84.31
2022-11-14T06:03:39.013Z,78.87
2022-11-14T06:06:07.256Z,78.35
2022-11-14T06:08:34.461Z,78.32
2022-11-14T06:11:15.950Z,72.65
2022-11-14T06:13:42.783Z,78.22
2022-11-14T06:16:14.664Z,77.80
2022-11-14T06:18:41.337Z,77.44
2022-11-14T06:21:11.829Z,77.66
2022-11-14T06:23:38.693Z,77.26
2022-11-14T06:26:07.374Z,77.40
2022-11-14T06:28:34.146Z,70.44
2022-11-14T06:31:02.584Z,78.28
2022-11-14T06:33:33.461Z,71.17
2022-11-14T06:36:05.828Z,78.05
2022-11-14T06:38:34.149Z,77.61
2022-11-14T06:41:08.809Z,71.44
2022-11-14T06:43:36.597Z,85.62
2022-11-14T06:46:04.112Z,77.48
2022-11-14T06:48:31.541Z,82.53
2022-11-14T06:50:59.569Z,79.08
2022-11-14T06:53:29.148Z,77.87
2022-11-14T06:56:10.510Z,74.08
2022-11-14T06:58:40.079Z,79.80
2022-11-14T07:01:12.034Z,78.11
2022-11-14T07:03:38.694Z,82.54
2022-11-14T07:06:06.084Z,79.55
2022-11-14T07:08:33.943Z,78.61
2022-11-14T07:11:25.333Z,73.59
2022-11-14T07:14:02.638Z,82.05
2022-11-14T07:16:31.339Z,79.11
2022-11-14T07:18:59.364Z,77.99
2022-11-14T07:21:27.779Z,78.37
2022-11-14T07:23:54.686Z,71.51
2022-11-14T07:26:21.321Z,77.28
2022-11-14T07:28:51.945Z,78.85
2022-11-14T07:31:20.565Z,79.47
2022-11-14T07:33:47.966Z,77.89
2022-11-14T07:36:15.576Z,77.95
2022-11-14T07:38:42.164Z,75.27
2022-11-14T07:41:18.123Z,83.16
2022-11-14T07:43:45.316Z,80.98
2022-11-14T07:46:14.311Z,80.60
2022-11-14T07:48:41.135Z,81.16
2022-11-14T07:51:10.363Z,76.67
2022-11-14T07:53:36.777Z,77.07
2022-11-14T07:56:06.178Z,76.25
2022-11-14T07:58:35.306Z,78.97
2022-11-14T08:01:02.711Z,77.96
2022-11-14T08:03:29.567Z,77.33
2022-11-14T08:06:11.229Z,76.57
2022-11-14T08:08:37.669Z,74.29
2022-11-14T08:11:04.634Z,68.78
2022-11-14T08:13:33.373Z,75.46
2022-11-14T08:16:12.411Z,73.87
2022-11-14T08:18:40.176Z,66.90
2022-11-14T08:21:06.805Z,72.23
2022-11-14T08:23:33.313Z,75.92
2022-11-14T08:26:00.226Z,71.10
2022-11-14T08:28:27.115Z,70.60
2022-11-14T08:30:59.205Z,75.76
2022-11-14T08:33:25.593Z,76.26
2022-11-14T08:35:51.982Z,70.94
2022-11-14T08:38:18.369Z,75.08
2022-11-14T08:40:44.763Z,72.11
2022-11-14T08:43:11.712Z,75.10
2022-11-14T08:45:38.186Z,68.47
2022-11-14T08:48:05.714Z,65.68
2022-11-14T08:50:32.353Z,72.78
2022-11-14T08:52:58.858Z,76.92
2022-11-14T08:55:25.290Z,65.41
2022-11-14T08:57:53.509Z,74.80
2022-11-14T09:00:20.308Z,75.51
2022-11-14T09:02:47.104Z,70.89
2022-11-14T09:05:13.541Z,72.28
2022-11-14T09:07:40.161Z,65.12
2022-11-14T09:10:07.255Z,65.13
2022-11-14T09:12:34.242Z,65.58
2022-11-14T09:15:00.829Z,73.42
2022-11-14T09:17:27.241Z,62.71
2022-11-14T09:19:54.120Z,74.42
2022-11-14T09:22:20.568Z,64.94
2022-11-14T09:24:47.712Z,68.90
2022-11-14T09:27:14.216Z,64.28
2022-11-14T09:29:40.650Z,58.57
2022-11-14T09:32:07.033Z,58.04
2022-11-14T09:34:33.545Z,65.23
2022-11-14T09:36:59.938Z,61.75
2022-11-14T09:39:26.358Z,62.77
2022-11-14T09:42:00.984Z,71.64
2022-11-14T09:44:53.969Z,68.81
2022-11-14T09:47:25.995Z,57.58
2022-11-14T09:49:59.382Z,56.64
2022-11-14T09:52:46.027Z,57.25
2022-11-14T09:55:17.718Z,60.01
2022-11-14T09:57:46.298Z,58.84
2022-11-14T10:00:55.460Z,56.33
2022-11-14T10:03:24.916Z,56.02
2022-11-14T10:06:22.606Z,56.84
2022-11-14T10:09:06.566Z,53.79
2022-11-14T10:11:41.018Z,63.61
2022-11-14T10:14:32.326Z,71.22
2022-11-14T10:17:14.270Z,65.50
2022-11-14T10:20:10.118Z,55.89
2022-11-14T10:23:01.333Z,62.89
2022-11-14T10:25:51.745Z,59.10
2022-11-14T10:28:39.788Z,56.01
2022-11-14T10:31:43.364Z,65.56
2022-11-14T10:34:20.281Z,69.36
2022-11-14T10:37:20.798Z,70.50
2022-11-14T10:39:52.383Z,66.84
2022-11-14T10:42:36.423Z,55.05
2022-11-14T10:45:18.035Z,53.51
2022-11-14T10:47:49.761Z,60.17
2022-11-14T10:50:21.283Z,53.22
2022-11-14T10:52:52.474Z,60.84
2022-11-14T10:55:24.804Z,52.54
2022-11-14T10:58:13.609Z,54.20
2022-11-14T11:00:40.037Z,65.71
2022-11-14T11:03:07.576Z,51.82
2022-11-14T11:05:47.298Z,50.12
2022-11-14T11:08:43.186Z,51.66
2022-11-14T11:11:30.146Z,55.21
2022-11-14T11:14:01.066Z,59.29
2022-11-14T11:16:29.628Z,58.99
2022-11-14T11:19:21.415Z,65.53
2022-11-14T11:21:50.545Z,67.88
2022-11-14T11:24:32.397Z,60.77
2022-11-14T11:27:19.016Z,68.86
2022-11-14T11:29:46.241Z,62.31
2022-11-14T11:32:24.233Z,60.45
2022-11-14T11:34:51.865Z,61.24
2022-11-14T11:37:24.434Z,60.51
2022-11-14T11:40:02.110Z,61.38
2022-11-14T11:43:23.736Z,64.81
2022-11-14T11:45:23.341Z,60.51
2022-11-14T11:48:08.650Z,61.34
2022-11-14T11:50:35.298Z,63.31
2022-11-14T11:53:26.244Z,65.41
2022-11-14T11:56:01.339Z,64.75
2022-11-14T11:58:37.484Z,66.36
2022-11-14T12:01:04.078Z,69.11
2022-11-14T12:03:30.826Z,65.55
2022-11-14T12:06:18.121Z,66.50
2022-11-14T12:09:04.543Z,64.40
2022-11-14T12:11:34.759Z,63.26
2022-11-14T12:14:01.141Z,70.32
2022-11-14T12:16:57.702Z,66.20
2022-11-14T12:19:42.836Z,64.16
2022-11-14T12:22:37.198Z,66.44
2022-11-14T12:25:36.478Z,63.44
2022-11-14T12:28:22.455Z,66.06
2022-11-14T12:30:53.825Z,67.33
2022-11-14T12:33:34.062Z,68.56
2022-11-14T12:36:04.910Z,65.03
2022-11-14T12:38:42.412Z,66.19
2022-11-14T12:41:09.821Z,65.51
2022-11-14T12:43:43.159Z,66.07
2022-11-14T12:46:12.876Z,68.17
2022-11-14T12:48:41.690Z,69.53
2022-11-14T12:51:26.686Z,68.52
2022-11-14T12:53:55.128Z,70.90
2022-11-14T12:56:30.503Z,72.18
2022-11-14T12:59:24.720Z,70.74
2022-11-14T13:01:54.312Z,71.58
2022-11-14T13:04:50.339Z,68.14
2022-11-14T13:07:32.738Z,62.14
2022-11-14T13:10:09.898Z,63.10
2022-11-14T13:12:55.884Z,67.17
2022-11-14T13:15:48.823Z,64.71
2022-11-14T13:18:40.135Z,62.08
2022-11-14T13:21:42.342Z,67.19
2022-11-14T13:24:19.419Z,66.30
2022-11-14T13:26:48.822Z,65.48
2022-11-14T13:29:41.099Z,65.32
2022-11-14T13:32:11.754Z,69.73
2022-11-14T13:34:52.304Z,68.74
2022-11-14T13:37:43.919Z,69.86
2022-11-14T13:40:23.417Z,64.29
2022-11-14T13:43:12.747Z,63.91
2022-11-14T13:46:03.252Z,64.85
2022-11-14T13:48:58.541Z,63.59
2022-11-14T13:51:42.996Z,62.96
2022-11-14T13:54:17.977Z,61.99
2022-11-14T13:57:22.431Z,62.19
2022-11-14T14:00:03.059Z,63.92
2022-11-14T14:02:52.735Z,64.51
2022-11-14T14:05:37.884Z,67.77
2022-11-14T14:08:39.930Z,70.45
2022-11-14T14:11:43.018Z,71.66
2022-11-14T14:14:15.920Z,72.46
2022-11-14T14:17:07.221Z,71.55
2022-11-14T14:19:37.931Z,73.27
2022-11-14T14:22:11.465Z,74.46
2022-11-14T14:24:58.696Z,73.22
2022-11-14T14:27:52.882Z,72.57
2022-11-14T14:30:19.911Z,73.61
2022-11-14T14:33:07.342Z,73.45
2022-11-14T14:35:40.226Z,73.09
2022-11-14T14:38:12.975Z,72.77
2022-11-14T14:40:42.052Z,71.87
2022-11-14T14:43:25.526Z,72.62
2022-11-14T14:45:54.029Z,72.94
2022-11-14T14:48:27.380Z,73.96
2022-11-14T14:50:57.927Z,74.04
2022-11-14T14:53:26.127Z,73.54
2022-11-14T14:56:00.692Z,74.16
2022-11-14T14:58:29.556Z,73.97
2022-11-14T15:01:06.538Z,73.64
2022-11-14T15:03:39.691Z,73.09
2022-11-14T15:06:22.166Z,73.94
2022-11-14T15:08:49.461Z,74.57
2022-11-14T15:11:16.337Z,74.67
2022-11-14T15:13:43.218Z,73.23
2022-11-14T15:16:10.726Z,74.51
2022-11-14T15:18:37.800Z,74.19
2022-11-14T15:21:30.489Z,74.18
2022-11-14T15:24:14.444Z,74.85
2022-11-14T15:26:44.436Z,74.87
2022-11-14T15:29:20.178Z,74.93
2022-11-14T15:31:59.717Z,75.09
2022-11-14T15:34:34.611Z,74.89
2022-11-14T15:37:10.136Z,74.83
2022-11-14T15:39:37.669Z,75.30
2022-11-14T15:42:14.900Z,75.28
2022-11-14T15:44:45.177Z,75.38
2022-11-14T15:47:40.011Z,75.31
2022-11-14T15:50:31.196Z,75.24
2022-11-14T15:53:18.481Z,75.41
2022-11-14T15:55:44.922Z,75.07
2022-11-14T15:58:29.189Z,75.24
2022-11-14T16:00:56.526Z,75.83
2022-11-14T16:03:23.709Z,75.48
2022-11-14T16:05:50.131Z,76.09
2022-11-14T16:08:16.540Z,75.17
2022-11-14T16:10:42.993Z,75.18
2022-11-14T16:13:10.983Z,75.12
2022-11-14T16:15:37.525Z,75.17
2022-11-14T16:18:05.910Z,75.59
2022-11-14T16:20:37.774Z,75.30
2022-11-14T16:23:05.323Z,75.14
2022-11-14T16:25:32.366Z,75.15
2022-11-14T16:27:58.813Z,74.32
2022-11-14T16:30:25.872Z,75.76
2022-11-14T16:32:52.792Z,77.72
2022-11-14T16:35:24.967Z,75.70
2022-11-14T16:37:52.032Z,75.68
2022-11-14T16:40:25.476Z,75.03
2022-11-14T16:42:54.749Z,75.13
2022-11-14T16:45:21.842Z,75.21
2022-11-14T16:47:49.352Z,74.83
2022-11-14T16:50:16.180Z,75.41
2022-11-14T16:52:42.691Z,75.21
2022-11-14T16:55:11.629Z,74.32
2022-11-14T16:57:38.974Z,76.15
2022-11-14T17:00:07.916Z,75.08
2022-11-14T17:02:34.400Z,75.62
2022-11-14T17:05:00.831Z,71.31
2022-11-14T17:07:30.539Z,71.52
2022-11-14T17:09:56.881Z,77.55
2022-11-14T17:12:23.366Z,78.60
2022-11-14T17:14:49.770Z,76.24
2022-11-14T17:17:16.180Z,75.46
2022-11-14T17:19:46.026Z,73.07
2022-11-14T17:22:13.552Z,76.90
2022-11-14T17:24:40.358Z,74.47
2022-11-14T17:27:07.755Z,77.54
2022-11-14T17:29:34.311Z,76.25
2022-11-14T17:32:01.292Z,75.45
2022-11-14T17:34:28.033Z,73.44
2022-11-14T17:36:54.468Z,76.27
2022-11-14T17:39:20.993Z,76.08
2022-11-14T17:41:47.516Z,76.57
2022-11-14T17:44:13.961Z,77.85
2022-11-14T17:46:40.432Z,75.71
2022-11-14T17:49:06.910Z,72.67
2022-11-14T17:51:33.402Z,75.05
2022-11-14T17:53:59.853Z,74.81
2022-11-14T17:56:26.871Z,74.54
2022-11-14T17:58:53.649Z,75.32
2022-11-14T18:01:23.434Z,75.38
2022-11-14T18:03:50.514Z,75.19
2022-11-14T18:06:21.575Z,76.44
2022-11-14T18:08:48.518Z,74.71
2022-11-14T18:11:17.051Z,76.19
2022-11-14T18:13:43.774Z,75.23
2022-11-14T18:16:17.389Z,75.09
2022-11-14T18:18:44.080Z,74.37
2022-11-14T18:21:14.439Z,73.99
2022-11-14T18:23:41.094Z,74.73
2022-11-14T18:26:16.022Z,74.96
2022-11-14T18:28:43.445Z,77.38
2022-11-14T18:31:11.629Z,77.95
2022-11-14T18:33:38.662Z,75.66
2022-11-14T18:36:08.754Z,75.51
2022-11-14T18:38:35.409Z,76.66
2022-11-14T18:41:03.612Z,73.72
2022-11-14T18:43:32.559Z,74.79
2022-11-14T18:46:13.434Z,77.79
2022-11-14T18:48:41.417Z,75.80
2022-11-14T18:51:11.470Z,75.33
2022-11-14T18:53:37.956Z,72.16
2022-11-14T18:56:06.461Z,75.81
2022-11-14T18:58:33.466Z,74.99
2022-11-14T19:01:21.787Z,78.19
2022-11-14T19:03:48.207Z,81.63
2022-11-14T19:06:14.666Z,76.97
2022-11-14T19:08:41.296Z,75.66
2022-11-14T19:11:30.354Z,75.42
2022-11-14T19:13:57.559Z,75.12
2022-11-14T19:16:24.076Z,77.02
2022-11-14T19:18:50.460Z,75.89
2022-11-14T19:21:16.920Z,75.68
2022-11-14T19:23:43.424Z,75.54
2022-11-14T19:26:10.489Z,75.37
2022-11-14T19:28:37.008Z,75.58
2022-11-14T19:31:05.772Z,75.13
2022-11-14T19:33:33.249Z,75.06
2022-11-14T19:36:09.070Z,75.30
2022-11-14T19:38:35.614Z,75.48
2022-11-14T19:41:10.320Z,74.01
2022-11-14T19:43:37.980Z,74.57
2022-11-14T19:46:05.859Z,78.14
2022-11-14T19:48:33.479Z,81.50
2022-11-14T19:51:05.677Z,82.19
2022-11-14T19:53:36.022Z,77.21
2022-11-14T19:56:05.403Z,75.95
2022-11-14T19:58:31.900Z,75.60
2022-11-14T20:01:13.303Z,75.25
2022-11-14T20:03:40.425Z,75.23
2022-11-14T20:06:16.700Z,69.61
2022-11-14T20:08:43.116Z,78.27
2022-11-14T20:11:09.729Z,76.41
2022-11-14T20:13:38.629Z,73.78
2022-11-14T20:16:14.283Z,80.06
2022-11-14T20:18:42.607Z,77.89
2022-11-14T20:21:12.717Z,79.12
2022-11-14T20:23:39.149Z,76.39
2022-11-14T20:26:11.102Z,75.81
2022-11-14T20:28:42.741Z,75.54
2022-11-14T20:31:14.400Z,75.30
2022-11-14T20:33:43.022Z,75.14
2022-11-14T20:36:13.378Z,75.05
2022-11-14T20:38:40.007Z,75.04
2022-11-14T20:41:06.538Z,75.75
2022-11-14T20:43:34.349Z,75.28
2022-11-14T20:46:03.822Z,75.38
2022-11-14T20:48:33.562Z,75.71
2022-11-14T20:51:04.050Z,74.86
2022-11-14T20:53:31.711Z,75.73
2022-11-14T20:55:58.422Z,74.16
2022-11-14T20:58:24.803Z,74.73
2022-11-14T21:00:51.954Z,73.74
2022-11-14T21:03:19.194Z,75.39
2022-11-14T21:05:46.187Z,75.69
2022-11-14T21:08:14.229Z,75.16
2022-11-14T21:10:46.934Z,74.80
2022-11-14T21:13:34.274Z,72.16
2022-11-14T21:16:02.651Z,79.21
2022-11-14T21:18:29.622Z,76.30
2022-11-14T21:20:59.583Z,75.11
2022-11-14T21:23:25.992Z,75.20
2022-11-14T21:25:52.476Z,75.30
2022-11-14T21:28:18.877Z,74.95
2022-11-14T21:30:45.412Z,74.54
2022-11-14T21:33:11.789Z,68.82
2022-11-14T21:35:39.337Z,76.56
2022-11-14T21:38:05.739Z,75.14
2022-11-14T21:40:32.121Z,74.62
2022-11-14T21:42:58.512Z,74.13
2022-11-14T21:45:24.930Z,74.86
2022-11-14T21:47:51.350Z,67.78
2022-11-14T21:50:17.841Z,70.37
2022-11-14T21:52:44.249Z,77.99
2022-11-14T21:55:10.734Z,67.68
2022-11-14T21:57:37.114Z,77.86
2022-11-14T22:00:04.074Z,71.37
2022-11-14T22:02:49.097Z,76.27
2022-11-14T22:05:15.542Z,75.64
2022-11-14T22:07:42.124Z,75.07
2022-11-14T22:10:08.891Z,74.67
2022-11-14T22:12:35.373Z,77.33
2022-11-14T22:15:02.264Z,75.21
2022-11-14T22:17:28.873Z,75.05
2022-11-14T22:19:55.263Z,67.52
2022-11-14T22:22:21.641Z,74.74
2022-11-14T22:24:48.013Z,74.09
2022-11-14T22:27:14.418Z,74.39
2022-11-14T22:29:40.893Z,73.65
2022-11-14T22:32:07.312Z,79.36
2022-11-14T22:34:33.693Z,78.62
2022-11-14T22:37:00.102Z,68.70
2022-11-14T22:39:26.550Z,70.12
2022-11-14T22:41:53.260Z,81.22
2022-11-14T22:44:19.726Z,76.23
2022-11-14T22:46:46.365Z,67.49
2022-11-14T22:49:16.017Z,73.87
2022-11-14T22:51:44.847Z,78.96
2022-11-14T22:54:11.271Z,75.56
2022-11-14T22:56:37.675Z,76.30
2022-11-14T22:59:04.077Z,75.51
2022-11-14T23:01:32.759Z,75.00
2022-11-14T23:04:02.439Z,75.03
2022-11-14T23:06:30.108Z,74.78
2022-11-14T23:08:56.864Z,74.36
2022-11-14T23:11:26.211Z,74.83
2022-11-14T23:13:54.702Z,73.71
2022-11-14T23:16:23.755Z,67.86
2022-11-14T23:18:50.891Z,78.94
2022-11-14T23:21:22.227Z,76.13
2022-11-14T23:24:00.182Z,75.29
2022-11-14T23:26:27.955Z,67.28
2022-11-14T23:28:55.098Z,76.59
2022-11-14T23:31:21.960Z,75.15
2022-11-14T23:33:53.642Z,67.62
2022-11-14T23:36:20.388Z,79.29
2022-11-14T23:38:47.175Z,76.41
2022-11-14T23:41:22.101Z,75.79
2022-11-14T23:43:48.653Z,78.85
2022-11-14T23:46:15.594Z,76.01
2022-11-14T23:48:42.047Z,75.33
2022-11-14T23:51:09.671Z,75.49
2022-11-14T23:53:36.378Z,71.82
2022-11-14T23:56:02.816Z,75.63
2022-11-14T23:58:30.181Z,75.37
